sensor_id;sensor_type;location;lat;lon;timestamp;temperature;humidity
33460;DHT22;19795;53.160;6.612;2024-02-21T07:17:18;8.60;99.90
33460;DHT22;19795;53.160;6.612;2024-02-21T07:24:55;8.60;99.90
33460;DHT22;19795;53.160;6.612;2024-02-21T07:27:20;8.70;99.90
33460;DHT22;19795;53.160;6.612;2024-02-21T07:29:46;8.70;99.90
33460;DHT22;19795;53.160;6.612;2024-02-21T07:32:14;8.70;99.90
33460;DHT22;19795;53.160;6.612;2024-02-21T07:34:39;8.70;99.90
33460;DHT22;19795;53.160;6.612;2024-02-21T07:37:05;8.70;99.90
33460;DHT22;19795;53.160;6.612;2024-02-21T07:39:31;8.70;99.90
33460;DHT22;19795;53.160;6.612;2024-02-21T07:41:56;8.80;99.90
33460;DHT22;19795;53.160;6.612;2024-02-21T07:44:22;8.70;99.90
33460;DHT22;19795;53.160;6.612;2024-02-21T07:46:47;8.70;99.90
33460;DHT22;19795;53.160;6.612;2024-02-21T07:49:13;8.90;99.90
33460;DHT22;19795;53.160;6.612;2024-02-21T07:51:39;8.80;99.90
33460;DHT22;19795;53.160;6.612;2024-02-21T07:54:05;8.90;99.90
33460;DHT22;19795;53.160;6.612;2024-02-21T07:56:33;8.80;99.90
33460;DHT22;19795;53.160;6.612;2024-02-21T07:58:59;9.00;99.90
33460;DHT22;19795;53.160;6.612;2024-02-21T08:01:25;9.10;99.90
33460;DHT22;19795;53.160;6.612;2024-02-21T08:03:50;8.90;99.90
33460;DHT22;19795;53.160;6.612;2024-02-21T08:06:16;8.90;99.90
33460;DHT22;19795;53.160;6.612;2024-02-21T08:08:42;9.00;99.90
33460;DHT22;19795;53.160;6.612;2024-02-21T08:11:07;9.10;99.90
33460;DHT22;19795;53.160;6.612;2024-02-21T08:13:33;8.90;99.90
33460;DHT22;19795;53.160;6.612;2024-02-21T08:15:58;9.00;99.90
33460;DHT22;19795;53.160;6.612;2024-02-21T08:18:25;8.90;99.90
33460;DHT22;19795;53.160;6.612;2024-02-21T08:20:50;9.00;99.90
33460;DHT22;19795;53.160;6.612;2024-02-21T08:23:16;8.90;99.90
33460;DHT22;19795;53.160;6.612;2024-02-21T08:25:42;9.00;99.90
33460;DHT22;19795;53.160;6.612;2024-02-21T08:28:08;8.90;99.90
33460;DHT22;19795;53.160;6.612;2024-02-21T08:30:34;8.80;99.90
33460;DHT22;19795;53.160;6.612;2024-02-21T08:32:59;8.90;99.90
33460;DHT22;19795;53.160;6.612;2024-02-21T08:35:25;9.00;99.90
33460;DHT22;19795;53.160;6.612;2024-02-21T08:37:51;9.00;99.90
33460;DHT22;19795;53.160;6.612;2024-02-21T08:40:16;9.40;99.90
33460;DHT22;19795;53.160;6.612;2024-02-21T08:42:47;9.00;99.90
33460;DHT22;19795;53.160;6.612;2024-02-21T08:45:13;9.00;99.90
33460;DHT22;19795;53.160;6.612;2024-02-21T08:47:42;9.10;99.90
33460;DHT22;19795;53.160;6.612;2024-02-21T08:50:08;9.10;99.90
33460;DHT22;19795;53.160;6.612;2024-02-21T08:52:37;9.00;99.90
33460;DHT22;19795;53.160;6.612;2024-02-21T08:55:02;9.00;99.90
33460;DHT22;19795;53.160;6.612;2024-02-21T08:57:28;9.00;99.90
33460;DHT22;19795;53.160;6.612;2024-02-21T08:59:54;9.00;99.90
33460;DHT22;19795;53.160;6.612;2024-02-21T09:02:20;9.00;99.90
33460;DHT22;19795;53.160;6.612;2024-02-21T09:04:45;9.00;99.90
33460;DHT22;19795;53.160;6.612;2024-02-21T09:07:11;9.00;99.90
33460;DHT22;19795;53.160;6.612;2024-02-21T09:09:37;9.00;99.90
33460;DHT22;19795;53.160;6.612;2024-02-21T09:12:07;9.00;99.90
33460;DHT22;19795;53.160;6.612;2024-02-21T09:14:33;9.10;99.90
33460;DHT22;19795;53.160;6.612;2024-02-21T09:16:59;9.20;99.90
33460;DHT22;19795;53.160;6.612;2024-02-21T09:19:25;9.50;99.90
33460;DHT22;19795;53.160;6.612;2024-02-21T09:21:51;9.20;99.90
33460;DHT22;19795;53.160;6.612;2024-02-21T09:24:17;9.20;99.90
33460;DHT22;19795;53.160;6.612;2024-02-21T09:26:43;9.20;99.90
33460;DHT22;19795;53.160;6.612;2024-02-21T09:29:09;9.20;99.90
33460;DHT22;19795;53.160;6.612;2024-02-21T09:31:35;9.20;99.90
33460;DHT22;19795;53.160;6.612;2024-02-21T09:34:00;9.20;99.90
33460;DHT22;19795;53.160;6.612;2024-02-21T09:36:27;9.20;99.90
33460;DHT22;19795;53.160;6.612;2024-02-21T09:38:53;9.20;99.90
33460;DHT22;19795;53.160;6.612;2024-02-21T09:41:26;9.20;99.90
33460;DHT22;19795;53.160;6.612;2024-02-21T09:43:55;9.20;99.90
33460;DHT22;19795;53.160;6.612;2024-02-21T09:46:43;9.20;99.90
33460;DHT22;19795;53.160;6.612;2024-02-21T09:51:51;9.30;99.90
33460;DHT22;19795;53.160;6.612;2024-02-21T09:54:19;9.30;99.90
33460;DHT22;19795;53.160;6.612;2024-02-21T09:56:46;9.30;99.90
33460;DHT22;19795;53.160;6.612;2024-02-21T09:59:14;9.40;99.90
33460;DHT22;19795;53.160;6.612;2024-02-21T10:01:42;9.40;99.90
33460;DHT22;19795;53.160;6.612;2024-02-21T10:04:08;9.40;99.90
33460;DHT22;19795;53.160;6.612;2024-02-21T10:06:34;9.70;99.90
33460;DHT22;19795;53.160;6.612;2024-02-21T10:09:03;9.50;99.90
33460;DHT22;19795;53.160;6.612;2024-02-21T10:11:28;9.50;99.90
33460;DHT22;19795;53.160;6.612;2024-02-21T10:14:07;9.40;99.90
33460;DHT22;19795;53.160;6.612;2024-02-21T10:16:33;9.40;99.90
33460;DHT22;19795;53.160;6.612;2024-02-21T10:18:59;9.30;99.90
33460;DHT22;19795;53.160;6.612;2024-02-21T10:21:25;9.30;99.90
33460;DHT22;19795;53.160;6.612;2024-02-21T10:23:51;9.40;99.90
33460;DHT22;19795;53.160;6.612;2024-02-21T10:26:26;9.40;99.90
33460;DHT22;19795;53.160;6.612;2024-02-21T10:28:52;9.40;99.90
33460;DHT22;19795;53.160;6.612;2024-02-21T10:31:24;9.40;99.90
33460;DHT22;19795;53.160;6.612;2024-02-21T10:33:57;9.60;99.90
33460;DHT22;19795;53.160;6.612;2024-02-21T10:36:24;9.60;99.90
33460;DHT22;19795;53.160;6.612;2024-02-21T10:38:52;9.70;99.90
33460;DHT22;19795;53.160;6.612;2024-02-21T10:41:20;9.70;99.90
33460;DHT22;19795;53.160;6.612;2024-02-21T10:43:51;9.90;99.90
33460;DHT22;19795;53.160;6.612;2024-02-21T10:46:21;9.90;99.90
33460;DHT22;19795;53.160;6.612;2024-02-21T10:48:48;9.90;99.90
33460;DHT22;19795;53.160;6.612;2024-02-21T10:51:19;10.00;99.90
33460;DHT22;19795;53.160;6.612;2024-02-21T10:56:31;10.10;99.90
33460;DHT22;19795;53.160;6.612;2024-02-21T10:59:03;10.30;99.90
33460;DHT22;19795;53.160;6.612;2024-02-21T11:01:29;10.40;99.90
33460;DHT22;19795;53.160;6.612;2024-02-21T11:04:08;10.50;99.90
33460;DHT22;19795;53.160;6.612;2024-02-21T11:06:38;10.70;99.90
33460;DHT22;19795;53.160;6.612;2024-02-21T11:09:08;10.80;99.90
33460;DHT22;19795;53.160;6.612;2024-02-21T11:11:34;10.90;99.90
33460;DHT22;19795;53.160;6.612;2024-02-21T11:14:19;11.10;99.90
33460;DHT22;19795;53.160;6.612;2024-02-21T11:16:45;11.20;99.90
33460;DHT22;19795;53.160;6.612;2024-02-21T11:19:27;11.20;99.90
33460;DHT22;19795;53.160;6.612;2024-02-21T11:21:55;11.10;99.90
33460;DHT22;19795;53.160;6.612;2024-02-21T11:24:32;10.90;99.90
33460;DHT22;19795;53.160;6.612;2024-02-21T11:27:20;10.80;99.90
33460;DHT22;19795;53.160;6.612;2024-02-21T11:29:54;10.80;99.90
33460;DHT22;19795;53.160;6.612;2024-02-21T11:32:20;10.80;99.90
33460;DHT22;19795;53.160;6.612;2024-02-21T11:35:00;10.70;99.90
33460;DHT22;19795;53.160;6.612;2024-02-21T11:37:28;10.80;99.90
33460;DHT22;19795;53.160;6.612;2024-02-21T11:39:57;10.70;99.90
33460;DHT22;19795;53.160;6.612;2024-02-21T11:42:25;10.70;99.90
33460;DHT22;19795;53.160;6.612;2024-02-21T11:44:52;10.70;99.90
33460;DHT22;19795;53.160;6.612;2024-02-21T11:47:18;10.70;99.90
33460;DHT22;19795;53.160;6.612;2024-02-21T11:49:45;10.80;99.90
33460;DHT22;19795;53.160;6.612;2024-02-21T11:52:12;10.70;99.90
33460;DHT22;19795;53.160;6.612;2024-02-21T11:54:40;10.60;99.90
33460;DHT22;19795;53.160;6.612;2024-02-21T11:57:06;10.50;99.90
33460;DHT22;19795;53.160;6.612;2024-02-21T11:59:35;10.40;99.90
33460;DHT22;19795;53.160;6.612;2024-02-21T12:02:01;10.40;99.90
33460;DHT22;19795;53.160;6.612;2024-02-21T12:04:29;10.20;99.90
33460;DHT22;19795;53.160;6.612;2024-02-21T12:06:57;10.20;99.90
33460;DHT22;19795;53.160;6.612;2024-02-21T12:09:26;10.20;99.90
33460;DHT22;19795;53.160;6.612;2024-02-21T12:12:03;10.10;99.90
33460;DHT22;19795;53.160;6.612;2024-02-21T12:14:31;10.10;99.90
33460;DHT22;19795;53.160;6.612;2024-02-21T12:16:58;10.20;99.90
33460;DHT22;19795;53.160;6.612;2024-02-21T12:19:26;10.00;99.90
33460;DHT22;19795;53.160;6.612;2024-02-21T12:21:52;10.10;99.90
33460;DHT22;19795;53.160;6.612;2024-02-21T12:24:24;10.10;99.90
33460;DHT22;19795;53.160;6.612;2024-02-21T12:26:51;10.00;99.90
33460;DHT22;19795;53.160;6.612;2024-02-21T12:29:21;10.10;99.90
33460;DHT22;19795;53.160;6.612;2024-02-21T12:31:47;10.10;99.90
33460;DHT22;19795;53.160;6.612;2024-02-21T12:34:13;10.10;99.90
33460;DHT22;19795;53.160;6.612;2024-02-21T12:36:44;10.20;99.90
33460;DHT22;19795;53.160;6.612;2024-02-21T12:39:10;10.30;99.90
33460;DHT22;19795;53.160;6.612;2024-02-21T12:41:36;10.40;99.90
33460;DHT22;19795;53.160;6.612;2024-02-21T12:44:06;10.50;99.90
33460;DHT22;19795;53.160;6.612;2024-02-21T12:46:37;10.50;99.90
33460;DHT22;19795;53.160;6.612;2024-02-21T12:49:03;10.50;99.90
33460;DHT22;19795;53.160;6.612;2024-02-21T12:51:32;10.50;99.90
33460;DHT22;19795;53.160;6.612;2024-02-21T12:53:58;10.50;99.90
33460;DHT22;19795;53.160;6.612;2024-02-21T12:56:24;10.40;99.90
33460;DHT22;19795;53.160;6.612;2024-02-21T12:58:54;10.30;99.90
33460;DHT22;19795;53.160;6.612;2024-02-21T13:01:20;10.30;99.90
33460;DHT22;19795;53.160;6.612;2024-02-21T13:03:46;10.30;99.90
33460;DHT22;19795;53.160;6.612;2024-02-21T13:06:12;10.20;99.90
33460;DHT22;19795;53.160;6.612;2024-02-21T13:08:38;10.10;99.90
33460;DHT22;19795;53.160;6.612;2024-02-21T13:11:05;10.20;99.90
33460;DHT22;19795;53.160;6.612;2024-02-21T13:13:31;10.20;99.90
33460;DHT22;19795;53.160;6.612;2024-02-21T13:15:58;10.40;99.90
33460;DHT22;19795;53.160;6.612;2024-02-21T13:18:23;10.30;99.90
33460;DHT22;19795;53.160;6.612;2024-02-21T13:20:49;10.40;99.90
33460;DHT22;19795;53.160;6.612;2024-02-21T13:23:15;10.40;99.90
33460;DHT22;19795;53.160;6.612;2024-02-21T13:25:40;10.50;99.90
33460;DHT22;19795;53.160;6.612;2024-02-21T13:28:06;10.60;99.90
33460;DHT22;19795;53.160;6.612;2024-02-21T13:30:32;10.60;99.90
33460;DHT22;19795;53.160;6.612;2024-02-21T13:32:58;10.60;99.90
33460;DHT22;19795;53.160;6.612;2024-02-21T13:35:24;10.60;99.90
33460;DHT22;19795;53.160;6.612;2024-02-21T13:37:49;10.60;99.90
33460;DHT22;19795;53.160;6.612;2024-02-21T13:40:16;10.60;99.90
33460;DHT22;19795;53.160;6.612;2024-02-21T13:42:42;10.50;99.90
33460;DHT22;19795;53.160;6.612;2024-02-21T13:45:08;10.50;99.90
33460;DHT22;19795;53.160;6.612;2024-02-21T13:47:35;10.40;99.90
33460;DHT22;19795;53.160;6.612;2024-02-21T13:50:05;10.40;99.90
33460;DHT22;19795;53.160;6.612;2024-02-21T13:52:31;10.30;99.90
33460;DHT22;19795;53.160;6.612;2024-02-21T13:54:57;10.40;99.90
33460;DHT22;19795;53.160;6.612;2024-02-21T13:57:23;10.30;99.90
33460;DHT22;19795;53.160;6.612;2024-02-21T13:59:48;10.30;99.90
33460;DHT22;19795;53.160;6.612;2024-02-21T14:02:14;10.40;99.90
33460;DHT22;19795;53.160;6.612;2024-02-21T14:04:40;10.30;99.90
33460;DHT22;19795;53.160;6.612;2024-02-21T14:07:05;10.20;99.90
33460;DHT22;19795;53.160;6.612;2024-02-21T14:09:34;10.20;99.90
33460;DHT22;19795;53.160;6.612;2024-02-21T14:12:00;10.40;99.90
33460;DHT22;19795;53.160;6.612;2024-02-21T14:14:26;10.20;99.90
33460;DHT22;19795;53.160;6.612;2024-02-21T14:16:51;10.20;99.90
33460;DHT22;19795;53.160;6.612;2024-02-21T14:19:17;10.10;99.90
33460;DHT22;19795;53.160;6.612;2024-02-21T14:21:44;10.00;99.90
33460;DHT22;19795;53.160;6.612;2024-02-21T14:24:11;10.10;99.90
33460;DHT22;19795;53.160;6.612;2024-02-21T14:26:37;10.40;99.90
33460;DHT22;19795;53.160;6.612;2024-02-21T14:29:04;10.00;99.90
33460;DHT22;19795;53.160;6.612;2024-02-21T14:31:33;10.00;99.90
33460;DHT22;19795;53.160;6.612;2024-02-21T14:33:59;9.90;99.90
33460;DHT22;19795;53.160;6.612;2024-02-21T14:36:26;10.10;99.90
33460;DHT22;19795;53.160;6.612;2024-02-21T14:38:52;9.90;99.90
33460;DHT22;19795;53.160;6.612;2024-02-21T14:41:18;9.80;99.90
33460;DHT22;19795;53.160;6.612;2024-02-21T14:43:44;9.80;99.90
33460;DHT22;19795;53.160;6.612;2024-02-21T14:46:10;9.80;99.90
33460;DHT22;19795;53.160;6.612;2024-02-21T14:48:37;9.80;99.90
33460;DHT22;19795;53.160;6.612;2024-02-21T14:51:04;9.70;99.90
33460;DHT22;19795;53.160;6.612;2024-02-21T14:53:30;9.70;99.90
33460;DHT22;19795;53.160;6.612;2024-02-21T14:55:56;9.70;99.90
33460;DHT22;19795;53.160;6.612;2024-02-21T14:58:25;9.60;99.90
33460;DHT22;19795;53.160;6.612;2024-02-21T15:00:51;9.60;99.90
33460;DHT22;19795;53.160;6.612;2024-02-21T15:03:19;9.60;99.90
33460;DHT22;19795;53.160;6.612;2024-02-21T15:05:46;9.60;99.90
33460;DHT22;19795;53.160;6.612;2024-02-21T15:08:12;9.60;99.90
33460;DHT22;19795;53.160;6.612;2024-02-21T15:10:39;9.50;99.90
33460;DHT22;19795;53.160;6.612;2024-02-21T15:13:05;9.50;99.90
33460;DHT22;19795;53.160;6.612;2024-02-21T15:15:31;9.50;99.90
33460;DHT22;19795;53.160;6.612;2024-02-21T15:17:57;9.50;99.90
33460;DHT22;19795;53.160;6.612;2024-02-21T15:20:23;9.50;99.90
33460;DHT22;19795;53.160;6.612;2024-02-21T15:22:49;9.50;99.90
33460;DHT22;19795;53.160;6.612;2024-02-21T15:25:14;9.50;99.90
33460;DHT22;19795;53.160;6.612;2024-02-21T15:27:44;9.50;99.90
33460;DHT22;19795;53.160;6.612;2024-02-21T15:30:11;9.50;99.90
33460;DHT22;19795;53.160;6.612;2024-02-21T15:32:38;9.40;99.90
33460;DHT22;19795;53.160;6.612;2024-02-21T15:35:05;9.40;99.90
33460;DHT22;19795;53.160;6.612;2024-02-21T15:37:34;9.50;99.90
33460;DHT22;19795;53.160;6.612;2024-02-21T15:40:00;9.50;99.90
33460;DHT22;19795;53.160;6.612;2024-02-21T15:42:26;9.70;99.90
33460;DHT22;19795;53.160;6.612;2024-02-21T15:44:52;9.40;99.90
33460;DHT22;19795;53.160;6.612;2024-02-21T15:47:18;9.40;99.90
33460;DHT22;19795;53.160;6.612;2024-02-21T15:49:57;9.40;99.90
33460;DHT22;19795;53.160;6.612;2024-02-21T15:52:24;9.40;99.90
33460;DHT22;19795;53.160;6.612;2024-02-21T15:54:50;9.50;99.90
33460;DHT22;19795;53.160;6.612;2024-02-21T15:57:16;9.40;99.90
33460;DHT22;19795;53.160;6.612;2024-02-21T15:59:42;9.50;99.90
33460;DHT22;19795;53.160;6.612;2024-02-21T16:02:07;9.40;99.90
33460;DHT22;19795;53.160;6.612;2024-02-21T16:04:33;9.40;99.90
33460;DHT22;19795;53.160;6.612;2024-02-21T16:07:02;9.30;99.90
33460;DHT22;19795;53.160;6.612;2024-02-21T16:09:28;9.30;99.90
33460;DHT22;19795;53.160;6.612;2024-02-21T16:11:54;9.30;99.90
33460;DHT22;19795;53.160;6.612;2024-02-21T16:14:20;9.30;99.90
33460;DHT22;19795;53.160;6.612;2024-02-21T16:16:47;9.20;99.90
33460;DHT22;19795;53.160;6.612;2024-02-21T16:19:17;9.30;99.90
33460;DHT22;19795;53.160;6.612;2024-02-21T16:21:42;9.10;99.90
33460;DHT22;19795;53.160;6.612;2024-02-21T16:24:09;9.10;99.90
33460;DHT22;19795;53.160;6.612;2024-02-21T16:26:38;9.10;99.90
33460;DHT22;19795;53.160;6.612;2024-02-21T16:29:04;9.00;99.90
33460;DHT22;19795;53.160;6.612;2024-02-21T16:31:33;8.90;99.90
33460;DHT22;19795;53.160;6.612;2024-02-21T16:33:58;8.90;99.90
33460;DHT22;19795;53.160;6.612;2024-02-21T16:36:24;8.90;99.90
33460;DHT22;19795;53.160;6.612;2024-02-21T16:38:51;9.00;99.90
33460;DHT22;19795;53.160;6.612;2024-02-21T16:41:18;9.00;99.90
33460;DHT22;19795;53.160;6.612;2024-02-21T16:43:47;8.80;99.90
33460;DHT22;19795;53.160;6.612;2024-02-21T16:46:14;8.60;99.90
33460;DHT22;19795;53.160;6.612;2024-02-21T16:48:41;8.70;99.90
33460;DHT22;19795;53.160;6.612;2024-02-21T16:51:07;8.80;99.90
33460;DHT22;19795;53.160;6.612;2024-02-21T16:53:33;8.70;99.90
33460;DHT22;19795;53.160;6.612;2024-02-21T16:55:58;8.60;99.90
33460;DHT22;19795;53.160;6.612;2024-02-21T16:58:25;8.60;99.90
33460;DHT22;19795;53.160;6.612;2024-02-21T17:00:50;8.60;99.90
33460;DHT22;19795;53.160;6.612;2024-02-21T17:03:16;8.60;99.90
33460;DHT22;19795;53.160;6.612;2024-02-21T17:05:46;8.60;99.90
33460;DHT22;19795;53.160;6.612;2024-02-21T17:08:11;8.90;99.90
33460;DHT22;19795;53.160;6.612;2024-02-21T17:10:37;8.50;99.90
33460;DHT22;19795;53.160;6.612;2024-02-21T17:13:05;8.50;99.90
33460;DHT22;19795;53.160;6.612;2024-02-21T17:15:30;8.50;99.90
33460;DHT22;19795;53.160;6.612;2024-02-21T17:17:56;8.50;99.90
33460;DHT22;19795;53.160;6.612;2024-02-21T17:20:22;8.50;99.90
33460;DHT22;19795;53.160;6.612;2024-02-21T17:22:48;8.50;99.90
33460;DHT22;19795;53.160;6.612;2024-02-21T17:25:14;8.50;99.90
33460;DHT22;19795;53.160;6.612;2024-02-21T17:27:40;8.50;99.90
33460;DHT22;19795;53.160;6.612;2024-02-21T17:30:06;8.40;99.90
33460;DHT22;19795;53.160;6.612;2024-02-21T17:32:34;8.50;99.90
33460;DHT22;19795;53.160;6.612;2024-02-21T17:35:01;8.40;99.90
33460;DHT22;19795;53.160;6.612;2024-02-21T17:37:30;8.40;99.90
33460;DHT22;19795;53.160;6.612;2024-02-21T17:39:55;8.40;99.90
33460;DHT22;19795;53.160;6.612;2024-02-21T17:42:21;8.40;99.90
33460;DHT22;19795;53.160;6.612;2024-02-21T17:44:47;8.40;99.90
33460;DHT22;19795;53.160;6.612;2024-02-21T17:47:13;8.50;99.90
33460;DHT22;19795;53.160;6.612;2024-02-21T17:49:39;8.30;99.90
33460;DHT22;19795;53.160;6.612;2024-02-21T17:52:09;8.30;99.90
33460;DHT22;19795;53.160;6.612;2024-02-21T17:54:36;8.30;99.90
33460;DHT22;19795;53.160;6.612;2024-02-21T17:57:01;8.10;99.90
33460;DHT22;19795;53.160;6.612;2024-02-21T17:59:27;8.30;99.90
33460;DHT22;19795;53.160;6.612;2024-02-21T18:01:54;8.20;99.90
33460;DHT22;19795;53.160;6.612;2024-02-21T18:04:20;8.20;99.90
33460;DHT22;19795;53.160;6.612;2024-02-21T18:06:45;8.30;99.90
33460;DHT22;19795;53.160;6.612;2024-02-21T18:09:11;8.30;99.90
33460;DHT22;19795;53.160;6.612;2024-02-21T18:11:37;8.30;99.90
33460;DHT22;19795;53.160;6.612;2024-02-21T18:14:04;8.20;99.90
33460;DHT22;19795;53.160;6.612;2024-02-21T18:16:32;8.20;99.90
33460;DHT22;19795;53.160;6.612;2024-02-21T18:18:58;8.20;99.90
33460;DHT22;19795;53.160;6.612;2024-02-21T18:21:23;8.20;99.90
33460;DHT22;19795;53.160;6.612;2024-02-21T18:23:49;8.20;99.90
33460;DHT22;19795;53.160;6.612;2024-02-21T18:26:15;8.20;99.90
33460;DHT22;19795;53.160;6.612;2024-02-21T18:28:40;8.20;99.90
33460;DHT22;19795;53.160;6.612;2024-02-21T18:31:06;8.30;99.90
33460;DHT22;19795;53.160;6.612;2024-02-21T18:33:35;8.20;99.90
33460;DHT22;19795;53.160;6.612;2024-02-21T18:36:02;8.20;99.90
33460;DHT22;19795;53.160;6.612;2024-02-21T18:38:30;8.20;99.90
33460;DHT22;19795;53.160;6.612;2024-02-21T18:40:55;8.20;99.90
33460;DHT22;19795;53.160;6.612;2024-02-21T18:43:21;8.20;99.90
33460;DHT22;19795;53.160;6.612;2024-02-21T18:45:47;8.20;99.90
33460;DHT22;19795;53.160;6.612;2024-02-21T18:48:13;8.20;99.90
33460;DHT22;19795;53.160;6.612;2024-02-21T18:50:38;8.20;99.90
33460;DHT22;19795;53.160;6.612;2024-02-21T18:53:05;8.20;99.90
33460;DHT22;19795;53.160;6.612;2024-02-21T18:55:31;8.20;99.90
33460;DHT22;19795;53.160;6.612;2024-02-21T18:57:56;8.20;99.90
33460;DHT22;19795;53.160;6.612;2024-02-21T19:00:22;8.20;99.90
33460;DHT22;19795;53.160;6.612;2024-02-21T19:02:49;8.20;99.90
33460;DHT22;19795;53.160;6.612;2024-02-21T19:05:15;8.20;99.90
33460;DHT22;19795;53.160;6.612;2024-02-21T19:07:41;8.30;99.90
33460;DHT22;19795;53.160;6.612;2024-02-21T19:10:07;8.20;99.90
33460;DHT22;19795;53.160;6.612;2024-02-21T19:12:34;8.20;99.90
33460;DHT22;19795;53.160;6.612;2024-02-21T19:15:03;8.20;99.90
33460;DHT22;19795;53.160;6.612;2024-02-21T19:17:28;8.20;99.90
33460;DHT22;19795;53.160;6.612;2024-02-21T19:19:54;8.20;99.90
33460;DHT22;19795;53.160;6.612;2024-02-21T19:22:20;8.20;99.90
33460;DHT22;19795;53.160;6.612;2024-02-21T19:24:47;8.20;99.90
33460;DHT22;19795;53.160;6.612;2024-02-21T19:27:13;8.20;99.90
33460;DHT22;19795;53.160;6.612;2024-02-21T19:29:39;8.20;99.90
33460;DHT22;19795;53.160;6.612;2024-02-21T19:32:04;8.20;99.90
33460;DHT22;19795;53.160;6.612;2024-02-21T19:34:30;8.20;99.90
33460;DHT22;19795;53.160;6.612;2024-02-21T19:36:57;8.20;99.90
33460;DHT22;19795;53.160;6.612;2024-02-21T19:39:23;8.20;99.90
33460;DHT22;19795;53.160;6.612;2024-02-21T19:41:50;8.20;99.90
33460;DHT22;19795;53.160;6.612;2024-02-21T19:44:16;8.20;99.90
33460;DHT22;19795;53.160;6.612;2024-02-21T19:46:43;8.10;99.90
33460;DHT22;19795;53.160;6.612;2024-02-21T19:49:08;8.30;99.90
33460;DHT22;19795;53.160;6.612;2024-02-21T19:51:34;8.20;99.90
33460;DHT22;19795;53.160;6.612;2024-02-21T19:53:59;8.20;99.90
33460;DHT22;19795;53.160;6.612;2024-02-21T19:56:27;8.20;99.90
33460;DHT22;19795;53.160;6.612;2024-02-21T19:58:52;8.20;99.90
33460;DHT22;19795;53.160;6.612;2024-02-21T20:01:18;8.10;99.90
33460;DHT22;19795;53.160;6.612;2024-02-21T20:03:45;8.40;99.90
33460;DHT22;19795;53.160;6.612;2024-02-21T20:06:11;8.20;99.90
33460;DHT22;19795;53.160;6.612;2024-02-21T20:08:36;8.20;99.90
33460;DHT22;19795;53.160;6.612;2024-02-21T20:11:03;8.20;99.90
33460;DHT22;19795;53.160;6.612;2024-02-21T20:13:31;8.20;99.90
33460;DHT22;19795;53.160;6.612;2024-02-21T20:15:56;8.20;99.90
33460;DHT22;19795;53.160;6.612;2024-02-21T20:18:22;8.20;99.90
33460;DHT22;19795;53.160;6.612;2024-02-21T20:20:48;8.20;99.90
33460;DHT22;19795;53.160;6.612;2024-02-21T20:23:14;8.20;99.90
33460;DHT22;19795;53.160;6.612;2024-02-21T20:25:41;8.20;99.90
33460;DHT22;19795;53.160;6.612;2024-02-21T20:28:07;8.20;99.90
33460;DHT22;19795;53.160;6.612;2024-02-21T20:30:32;8.60;99.90
33460;DHT22;19795;53.160;6.612;2024-02-21T20:32:58;8.20;99.90
33460;DHT22;19795;53.160;6.612;2024-02-21T20:35:24;8.20;99.90
33460;DHT22;19795;53.160;6.612;2024-02-21T20:37:50;8.20;99.90
33460;DHT22;19795;53.160;6.612;2024-02-21T20:40:16;8.20;99.90
33460;DHT22;19795;53.160;6.612;2024-02-21T20:42:51;8.20;99.90
33460;DHT22;19795;53.160;6.612;2024-02-21T20:45:17;8.20;99.90
33460;DHT22;19795;53.160;6.612;2024-02-21T20:47:44;8.20;99.90
33460;DHT22;19795;53.160;6.612;2024-02-21T20:50:12;8.30;99.90
33460;DHT22;19795;53.160;6.612;2024-02-21T20:52:38;8.20;99.90
33460;DHT22;19795;53.160;6.612;2024-02-21T20:55:04;8.20;99.90
33460;DHT22;19795;53.160;6.612;2024-02-21T20:57:32;8.20;99.90
33460;DHT22;19795;53.160;6.612;2024-02-21T20:59:58;8.40;99.90
33460;DHT22;19795;53.160;6.612;2024-02-21T21:02:24;8.20;99.90
33460;DHT22;19795;53.160;6.612;2024-02-21T21:04:50;8.20;99.90
33460;DHT22;19795;53.160;6.612;2024-02-21T21:07:15;8.20;99.90
33460;DHT22;19795;53.160;6.612;2024-02-21T21:09:41;8.30;99.90
33460;DHT22;19795;53.160;6.612;2024-02-21T21:12:09;8.30;99.90
33460;DHT22;19795;53.160;6.612;2024-02-21T21:14:35;8.30;99.90
33460;DHT22;19795;53.160;6.612;2024-02-21T21:17:03;8.20;99.90
33460;DHT22;19795;53.160;6.612;2024-02-21T21:19:29;8.30;99.90
